Time;durP1;ratioP1;P1;durP2;ratioP2;P2;SDS_P1;SDS_P2;PMS_P1;PMS_P2;Temp;Humidity;BMP_temperature;BMP_pressure;BME280_temperature;BME280_humidity;BME280_pressure;Samples;Min_cycle;Max_cycle;Signal;HPM_P1;HPM_P2
2023/09/01 00:00:36;;;;;;;19.20;5.32;;;;;;;15.72;93.84;101189.00;6071462;19;20163;-68
2023/09/01 00:02:41;;;;;;;19.00;6.00;;;;;;;15.70;93.62;101190.88;6089176;19;20462;-68
2023/09/01 00:04:49;;;;;;;15.40;5.20;;;;;;;15.71;94.06;101197.84;6064381;19;20019;-68
2023/09/01 00:06:54;;;;;;;22.45;6.45;;;;;;;15.70;94.17;101201.47;6057805;19;20010;-70
2023/09/01 00:09:00;;;;;;;15.70;6.55;;;;;;;15.64;94.43;101200.91;6056187;19;20288;-70
2023/09/01 00:11:05;;;;;;;15.38;6.43;;;;;;;15.58;94.39;101199.44;6059180;19;20042;-70
2023/09/01 00:13:10;;;;;;;13.80;6.03;;;;;;;15.50;95.33;101199.88;6053211;19;20007;-70
2023/09/01 00:15:17;;;;;;;16.58;5.43;;;;;;;15.54;95.20;101197.94;6048087;19;20014;-68
2023/09/01 00:17:22;;;;;;;19.55;6.20;;;;;;;15.59;94.78;101193.22;6055347;19;20068;-68
2023/09/01 00:19:29;;;;;;;17.95;5.93;;;;;;;15.58;94.57;101191.50;6053100;19;20446;-68
2023/09/01 00:21:37;;;;;;;18.98;6.45;;;;;;;15.57;94.22;101189.81;6039615;19;20106;-69
2023/09/01 00:23:42;;;;;;;18.17;6.78;;;;;;;15.52;93.91;101190.06;6054125;19;20035;-68
2023/09/01 00:25:44;;;;;;;17.30;5.78;;;;;;;15.55;93.65;101197.81;6061141;19;20010;-69
2023/09/01 00:27:49;;;;;;;23.08;6.07;;;;;;;15.48;93.96;101200.91;6061327;19;20062;-69
2023/09/01 00:29:54;;;;;;;16.27;5.90;;;;;;;15.43;93.89;101203.81;6063725;19;20188;-70
2023/09/01 00:31:59;;;;;;;20.98;6.53;;;;;;;15.39;94.75;101210.22;6066647;19;20187;-70
2023/09/01 00:34:05;;;;;;;18.35;6.43;;;;;;;15.37;94.29;101212.94;6066827;19;20070;-69
2023/09/01 00:36:10;;;;;;;17.30;5.28;;;;;;;15.39;94.18;101204.06;6070159;19;20017;-69
2023/09/01 00:38:18;;;;;;;17.63;6.07;;;;;;;15.43;94.20;101197.66;6068157;19;20014;-68
2023/09/01 00:40:23;;;;;;;15.32;6.22;;;;;;;15.45;93.56;101203.72;6061454;19;20006;-69
2023/09/01 00:42:31;;;;;;;19.55;6.80;;;;;;;15.40;93.43;101203.97;6064458;19;20320;-69
2023/09/01 00:44:37;;;;;;;16.52;6.60;;;;;;;15.40;93.53;101203.13;6063057;19;20007;-69
2023/09/01 00:46:43;;;;;;;15.07;5.72;;;;;;;15.43;93.88;101200.28;6060527;19;20229;-69
2023/09/01 00:48:48;;;;;;;16.60;7.57;;;;;;;15.39;93.97;101196.97;6061368;19;20716;-69
2023/09/01 00:50:56;;;;;;;18.27;6.07;;;;;;;15.41;94.36;101197.75;6065465;19;20018;-69
2023/09/01 00:53:01;;;;;;;20.45;6.38;;;;;;;15.52;93.89;101203.31;6060778;19;20247;-70
2023/09/01 00:55:09;;;;;;;19.85;6.82;;;;;;;15.53;93.82;101196.19;6073988;19;20007;-68
2023/09/01 00:57:14;;;;;;;17.95;6.35;;;;;;;15.41;94.25;101195.09;6068066;19;20359;-70
2023/09/01 00:59:20;;;;;;;22.38;6.18;;;;;;;15.45;94.27;101193.13;6070264;19;20522;-70
2023/09/01 01:01:25;;;;;;;21.13;6.78;;;;;;;15.45;94.26;101195.78;6067524;19;20011;-69
2023/09/01 01:03:30;;;;;;;15.95;6.53;;;;;;;15.46;94.33;101184.25;6062307;19;20247;-69
2023/09/01 01:05:43;;;;;;;17.80;7.85;;;;;;;15.45;94.27;101185.19;6057854;19;20761;-69
2023/09/01 01:08:00;;;;;;;23.58;7.10;;;;;;;15.51;94.09;101192.81;6058018;19;20707;-69
2023/09/01 01:10:14;;;;;;;18.42;5.97;;;;;;;15.45;94.83;101201.91;6057295;19;20413;-69
2023/09/01 01:12:28;;;;;;;16.70;5.50;;;;;;;15.47;94.62;101199.19;6056668;19;20541;-68
2023/09/01 01:14:39;;;;;;;15.82;5.75;;;;;;;15.54;94.56;101203.22;6053904;19;20003;-67
2023/09/01 01:16:44;;;;;;;20.48;6.25;;;;;;;15.54;94.41;101197.94;6049822;19;20051;-70
2023/09/01 01:18:55;;;;;;;17.45;5.88;;;;;;;15.48;94.72;101196.47;6058386;19;20007;-69
2023/09/01 01:21:10;;;;;;;14.07;5.75;;;;;;;15.49;95.05;101202.63;6052048;19;20569;-69
2023/09/01 01:23:20;;;;;;;21.52;6.00;;;;;;;15.51;94.58;101206.91;6054989;19;20167;-68
2023/09/01 01:25:25;;;;;;;16.30;5.88;;;;;;;15.46;94.42;101208.09;6056757;19;20010;-68
2023/09/01 01:27:31;;;;;;;23.55;7.40;;;;;;;15.37;95.25;101210.28;6055739;19;20295;-68
2023/09/01 01:29:36;;;;;;;14.73;6.38;;;;;;;15.39;95.18;101212.00;6051625;19;20457;-68
2023/09/01 01:31:41;;;;;;;19.05;6.22;;;;;;;15.35;95.71;101208.69;6052977;19;20235;-69
2023/09/01 01:33:54;;;;;;;17.30;5.78;;;;;;;15.34;96.38;101197.22;6054969;19;20011;-68
2023/09/01 01:36:17;;;;;;;16.42;6.78;;;;;;;15.42;96.19;101193.31;6056837;19;20382;-68
2023/09/01 01:38:29;;;;;;;21.55;5.82;;;;;;;15.39;97.14;101191.69;6053374;19;20013;-68
2023/09/01 01:40:35;;;;;;;17.23;6.27;;;;;;;15.39;96.99;101191.69;6058196;19;20006;-68
2023/09/01 01:42:43;;;;;;;17.50;5.93;;;;;;;15.40;96.74;101203.13;6066240;19;20194;-68
2023/09/01 01:44:52;;;;;;;19.70;7.35;;;;;;;15.48;96.16;101191.19;6064891;19;20025;-68
2023/09/01 01:47:00;;;;;;;20.38;6.78;;;;;;;15.42;96.41;101203.91;6062578;19;20353;-69
2023/09/01 01:49:11;;;;;;;15.63;6.18;;;;;;;15.41;96.18;101197.75;6055027;19;20101;-68
2023/09/01 01:51:16;;;;;;;16.88;5.95;;;;;;;15.30;96.81;101195.69;6052839;19;20448;-68
2023/09/01 01:53:25;;;;;;;17.58;5.90;;;;;;;15.37;96.14;101199.69;6046536;19;20426;-69
2023/09/01 01:55:31;;;;;;;14.65;6.13;;;;;;;15.39;95.92;101201.41;6047667;19;20736;-69
2023/09/01 01:57:38;;;;;;;18.42;7.63;;;;;;;15.36;95.97;101197.16;6046037;19;20250;-69
2023/09/01 01:59:44;;;;;;;18.05;6.15;;;;;;;15.29;96.54;101180.72;6050443;19;20011;-70
2023/09/01 02:01:50;;;;;;;17.42;6.40;;;;;;;15.38;96.18;101192.63;6054458;19;20025;-70
2023/09/01 02:03:55;;;;;;;16.92;6.47;;;;;;;15.41;96.25;101195.09;6053014;19;20512;-69
2023/09/01 02:05:58;;;;;;;16.70;5.97;;;;;;;15.45;96.34;101188.69;6051131;19;20022;-69
2023/09/01 02:08:05;;;;;;;15.73;6.20;;;;;;;15.31;97.24;101188.59;6049077;19;20351;-68
2023/09/01 02:10:13;;;;;;;16.13;6.38;;;;;;;15.28;96.88;101181.69;6053595;19;20014;-68
2023/09/01 02:12:19;;;;;;;14.90;6.20;;;;;;;15.27;96.81;101171.16;6065575;19;20018;-69
2023/09/01 02:14:25;;;;;;;12.73;5.53;;;;;;;15.28;96.73;101184.31;6073244;19;20014;-69
2023/09/01 02:16:30;;;;;;;14.60;6.07;;;;;;;15.30;96.70;101186.91;6073404;19;20034;-69
2023/09/01 02:18:35;;;;;;;15.30;5.78;;;;;;;15.28;96.94;101189.63;6063551;19;20031;-69
2023/09/01 02:20:41;;;;;;;12.30;5.57;;;;;;;15.32;96.38;101190.28;6061091;19;20356;-68
2023/09/01 02:22:47;;;;;;;14.70;6.32;;;;;;;15.30;96.87;101193.03;6061138;19;20022;-68
2023/09/01 02:24:52;;;;;;;14.60;5.13;;;;;;;15.30;96.71;101200.13;6068477;19;20042;-68
2023/09/01 02:27:04;;;;;;;14.90;7.00;;;;;;;15.30;96.47;101198.34;6062065;19;20072;-71
2023/09/01 02:29:09;;;;;;;17.10;6.30;;;;;;;15.30;96.60;101187.75;6058881;19;20010;-70
2023/09/01 02:31:11;;;;;;;14.15;6.30;;;;;;;15.31;96.69;101186.78;6055161;19;20060;-70
2023/09/01 02:33:18;;;;;;;13.15;6.53;;;;;;;15.27;96.71;101177.34;6060549;19;20459;-70
2023/09/01 02:35:23;;;;;;;16.13;6.10;;;;;;;15.22;97.37;101182.03;6069303;19;20014;-68
2023/09/01 02:37:30;;;;;;;14.65;6.00;;;;;;;15.28;97.22;101175.53;6056538;19;20335;-70
2023/09/01 02:39:35;;;;;;;19.50;6.63;;;;;;;15.32;96.96;101177.06;6067678;19;20028;-68
2023/09/01 02:41:40;;;;;;;15.27;6.47;;;;;;;15.23;97.56;101174.94;6058632;19;20011;-68
2023/09/01 02:43:50;;;;;;;17.35;6.63;;;;;;;15.23;97.36;101170.47;6060172;19;20323;-68
2023/09/01 02:45:55;;;;;;;15.27;6.32;;;;;;;15.24;97.15;101174.81;6055910;19;20002;-69
2023/09/01 02:48:00;;;;;;;15.75;6.30;;;;;;;15.21;97.48;101168.84;6051245;19;20396;-68
2023/09/01 02:50:06;;;;;;;17.08;6.50;;;;;;;15.19;98.00;101168.06;6059082;19;20100;-68
2023/09/01 02:52:11;;;;;;;17.20;6.13;;;;;;;15.14;98.03;101165.72;6052423;19;20007;-68
2023/09/01 02:54:17;;;;;;;19.17;6.95;;;;;;;15.24;97.73;101166.03;6061756;19;20261;-68
2023/09/01 02:56:22;;;;;;;16.45;6.53;;;;;;;15.19;98.02;101162.78;6064094;19;20243;-69
2023/09/01 02:58:29;;;;;;;15.32;5.88;;;;;;;15.17;98.61;101160.25;6040843;19;20010;-70
2023/09/01 03:00:38;;;;;;;20.35;6.75;;;;;;;15.17;98.60;101160.25;6069795;19;20537;-69
2023/09/01 03:02:47;;;;;;;13.52;5.50;;;;;;;15.21;98.63;101159.13;6060923;19;21781;-69
2023/09/01 03:04:56;;;;;;;15.88;6.13;;;;;;;15.19;98.18;101158.34;6061361;19;20507;-69
2023/09/01 03:07:02;;;;;;;13.35;5.07;;;;;;;15.23;98.39;101159.03;6062600;19;20632;-68
2023/09/01 03:09:09;;;;;;;15.05;5.88;;;;;;;15.18;98.37;101164.59;6065856;19;20099;-68
2023/09/01 03:11:12;;;;;;;12.60;5.45;;;;;;;15.20;97.70;101164.50;6067068;19;20276;-68
2023/09/01 03:13:17;;;;;;;;;;;;;;;15.13;98.77;101164.81;6084297;19;20014;-67
2023/09/01 03:15:22;;;;;;;15.43;5.50;;;;;;;15.17;98.27;101162.88;6069404;19;19926;-69
2023/09/01 03:17:28;;;;;;;10.90;5.05;;;;;;;15.22;98.14;101166.13;6063590;19;20742;-69
2023/09/01 03:19:36;;;;;;;10.77;5.07;;;;;;;15.17;98.61;101169.97;6061790;19;20006;-69
2023/09/01 03:21:41;;;;;;;12.45;5.03;;;;;;;15.16;98.71;101169.09;6072564;19;20014;-69
2023/09/01 03:23:47;;;;;;;15.48;5.55;;;;;;;15.15;98.98;101172.69;6084989;19;20958;-69
2023/09/01 03:25:57;;;;;;;12.52;5.90;;;;;;;15.17;98.42;101168.19;6069776;19;20137;-69
2023/09/01 03:28:02;;;;;;;13.90;5.43;;;;;;;15.05;99.22;101172.31;6070530;19;20743;-68
2023/09/01 03:30:10;;;;;;;13.20;5.55;;;;;;;15.08;99.73;101155.44;6067008;19;20006;-68
2023/09/01 03:32:12;;;;;;;12.50;5.82;;;;;;;15.06;99.77;101163.47;6081621;19;20631;-69
2023/09/01 03:34:23;;;;;;;16.20;5.07;;;;;;;15.03;99.76;101163.59;6073549;19;20259;-68
2023/09/01 03:36:31;;;;;;;16.02;6.03;;;;;;;15.15;99.40;101156.81;6066943;19;20011;-70
2023/09/01 03:38:37;;;;;;;11.77;5.45;;;;;;;15.13;99.69;101158.69;6075230;19;20003;-67
2023/09/01 03:40:42;;;;;;;16.45;5.05;;;;;;;15.14;100.00;101155.97;6082885;19;20491;-68
2023/09/01 03:42:47;;;;;;;13.88;5.95;;;;;;;15.12;100.00;101159.63;6073611;19;20287;-68
2023/09/01 03:44:52;;;;;;;12.70;5.30;;;;;;;15.11;100.00;101160.56;6079734;19;20418;-69
2023/09/01 03:47:00;;;;;;;15.93;6.47;;;;;;;15.11;100.00;101168.50;6063071;19;20014;-69
2023/09/01 03:49:05;;;;;;;15.00;5.63;;;;;;;15.05;100.00;101169.69;6062615;19;20010;-69
2023/09/01 03:51:16;;;;;;;11.82;5.43;;;;;;;15.01;100.00;101160.22;6054113;19;19998;-68
2023/09/01 03:53:21;;;;;;;15.38;5.63;;;;;;;15.10;100.00;101161.50;6054749;19;20199;-69
2023/09/01 03:55:29;;;;;;;13.05;5.60;;;;;;;15.04;100.00;101164.50;6060879;19;20076;-69
2023/09/01 03:57:34;;;;;;;12.30;5.05;;;;;;;15.04;100.00;101153.91;6058611;19;20002;-70
2023/09/01 03:59:40;;;;;;;12.52;6.30;;;;;;;15.05;100.00;101159.09;6062224;19;20504;-69
2023/09/01 04:01:43;;;;;;;10.80;6.03;;;;;;;15.06;100.00;101150.25;6058876;19;20014;-70
2023/09/01 04:03:50;;;;;;;13.75;5.88;;;;;;;15.05;100.00;101148.50;6058660;19;20006;-70
2023/09/01 04:05:56;;;;;;;16.15;6.65;;;;;;;15.06;100.00;101146.72;6065505;19;20015;-70
2023/09/01 04:08:04;;;;;;;13.38;6.20;;;;;;;15.13;100.00;101148.09;6059178;19;20644;-70
2023/09/01 04:10:10;;;;;;;15.68;6.40;;;;;;;15.13;100.00;101146.28;6058513;19;20127;-68
2023/09/01 04:12:15;;;;;;;12.18;5.35;;;;;;;15.10;100.00;101154.41;6062532;19;20389;-68
2023/09/01 04:14:20;;;;;;;11.82;5.80;;;;;;;15.07;100.00;101148.44;6056292;19;20537;-70
2023/09/01 04:16:25;;;;;;;16.58;6.53;;;;;;;15.02;100.00;101147.81;6064322;19;20324;-68
2023/09/01 04:18:31;;;;;;;13.27;6.05;;;;;;;14.97;100.00;101152.50;6058023;19;20035;-68
2023/09/01 04:20:36;;;;;;;12.05;5.60;;;;;;;15.05;100.00;101150.31;6037013;19;20221;-69
2023/09/01 04:22:42;;;;;;;11.25;5.90;;;;;;;14.97;100.00;101158.66;6065016;19;20018;-68
2023/09/01 04:24:51;;;;;;;14.85;5.75;;;;;;;14.97;100.00;101142.78;6061454;19;20211;-69
2023/09/01 04:27:00;;;;;;;11.43;5.60;;;;;;;14.94;100.00;101145.59;6052745;19;20057;-70
2023/09/01 04:29:06;;;;;;;13.73;5.60;;;;;;;14.90;100.00;101157.28;6064502;19;20780;-69
2023/09/01 04:31:15;;;;;;;14.23;6.03;;;;;;;14.92;100.00;101150.09;6072063;19;20014;-69
2023/09/01 04:33:23;;;;;;;13.35;6.30;;;;;;;14.87;100.00;101153.00;6075109;19;20010;-69
2023/09/01 04:35:31;;;;;;;11.60;5.97;;;;;;;14.91;100.00;101146.63;6066009;19;20544;-70
2023/09/01 04:37:36;;;;;;;13.15;6.75;;;;;;;14.97;100.00;101148.06;6063475;19;20040;-68
2023/09/01 04:39:41;;;;;;;14.60;6.82;;;;;;;15.00;100.00;101147.91;6061419;19;20086;-68
2023/09/01 04:41:48;;;;;;;14.20;6.60;;;;;;;14.92;100.00;101150.97;6069431;19;20046;-70
2023/09/01 04:44:01;;;;;;;15.57;7.30;;;;;;;14.92;100.00;101155.41;6075056;19;20511;-68
2023/09/01 04:46:06;;;;;;;14.13;6.53;;;;;;;14.99;100.00;101153.28;6076617;19;20035;-69
2023/09/01 04:48:09;;;;;;;13.48;6.63;;;;;;;14.98;100.00;101159.50;6091505;19;20027;-68
2023/09/01 04:50:14;;;;;;;13.82;5.90;;;;;;;14.98;100.00;101154.22;6090090;19;20011;-69
2023/09/01 04:52:19;;;;;;;14.32;6.55;;;;;;;14.93;100.00;101152.69;6079600;19;20011;-69
2023/09/01 04:54:44;;;;;;;15.73;6.57;;;;;;;14.91;100.00;101154.56;6069976;19;20035;-69
2023/09/01 04:56:53;;;;;;;17.20;7.40;;;;;;;14.87;100.00;101153.00;6083947;19;20003;-68
2023/09/01 04:58:58;;;;;;;15.77;7.07;;;;;;;14.91;100.00;101164.28;6076364;19;20594;-68
2023/09/01 05:01:06;;;;;;;13.07;6.53;;;;;;;14.90;100.00;101160.78;6082877;19;20042;-68
2023/09/01 05:03:11;;;;;;;12.07;6.43;;;;;;;14.96;100.00;101159.59;6070605;19;20022;-69
2023/09/01 05:05:17;;;;;;;12.90;6.03;;;;;;;15.00;100.00;101157.63;6062544;19;20517;-68
2023/09/01 05:07:22;;;;;;;15.15;7.20;;;;;;;15.01;100.00;101154.03;6064187;19;20010;-68
2023/09/01 05:09:29;;;;;;;13.70;6.80;;;;;;;15.00;100.00;101147.91;6061241;19;20002;-70
2023/09/01 05:11:37;;;;;;;14.80;6.75;;;;;;;14.97;100.00;101149.88;6061268;19;20017;-69
2023/09/01 05:13:44;;;;;;;12.93;6.50;;;;;;;15.04;100.00;101153.91;6062045;19;20113;-70
2023/09/01 05:15:51;;;;;;;10.65;5.97;;;;;;;15.08;100.00;101148.34;6061797;19;20038;-68
2023/09/01 05:17:58;;;;;;;11.52;6.28;;;;;;;15.05;100.00;101158.25;6058161;19;20017;-68
2023/09/01 05:20:03;;;;;;;11.68;6.65;;;;;;;15.06;100.00;101165.25;6056656;19;20180;-68
2023/09/01 05:22:08;;;;;;;13.30;6.63;;;;;;;15.08;100.00;101164.22;6053984;19;20006;-69
2023/09/01 05:24:13;;;;;;;12.95;6.70;;;;;;;15.03;100.00;101163.59;6054870;19;20023;-69
2023/09/01 05:26:18;;;;;;;16.83;6.78;;;;;;;15.05;100.00;101166.19;6061674;19;20396;-68
2023/09/01 05:28:26;;;;;;;15.13;6.35;;;;;;;15.05;100.00;101161.75;6062028;19;20181;-67
2023/09/01 05:30:31;;;;;;;11.73;6.50;;;;;;;15.03;100.00;101163.59;6054871;19;20590;-70
2023/09/01 05:32:37;;;;;;;14.00;6.18;;;;;;;15.03;100.00;101168.06;6056005;19;20006;-68
2023/09/01 05:34:42;;;;;;;13.23;7.15;;;;;;;15.08;100.00;101168.66;6058458;19;20799;-68
2023/09/01 05:36:48;;;;;;;14.77;6.90;;;;;;;15.09;100.00;101158.00;6060050;19;20458;-70
2023/09/01 05:38:54;;;;;;;13.60;6.63;;;;;;;15.03;100.00;101152.16;6058765;19;20015;-68
2023/09/01 05:40:58;;;;;;;16.15;7.25;;;;;;;15.13;100.00;101156.88;6062798;19;20016;-69
2023/09/01 05:43:03;;;;;;;14.70;7.30;;;;;;;15.14;100.00;101155.97;6059151;19;20006;-68
2023/09/01 05:45:10;;;;;;;13.98;6.72;;;;;;;15.13;100.00;101153.38;6066649;19;20439;-68
2023/09/01 05:47:17;;;;;;;14.82;6.68;;;;;;;15.18;100.00;101148.69;6062699;19;20035;-68
2023/09/01 05:49:24;;;;;;;14.32;6.43;;;;;;;15.24;100.00;101150.16;6066928;19;20290;-70
2023/09/01 05:51:30;;;;;;;13.90;6.18;;;;;;;15.23;100.00;101159.88;6062019;19;20032;-68
2023/09/01 05:53:35;;;;;;;13.05;6.72;;;;;;;15.21;100.00;101166.22;6059106;19;20315;-69
2023/09/01 05:55:40;;;;;;;12.75;6.07;;;;;;;15.22;100.00;101167.91;6041591;19;20514;-69
2023/09/01 05:57:46;;;;;;;12.52;6.40;;;;;;;15.31;100.00;101167.41;6063988;19;20166;-69
2023/09/01 05:59:51;;;;;;;12.02;6.57;;;;;;;15.31;100.00;101168.25;6068669;19;20002;-72
2023/09/01 06:02:00;;;;;;;13.68;5.97;;;;;;;15.29;100.00;101170.13;6061474;19;20007;-71
2023/09/01 06:04:08;;;;;;;14.95;6.07;;;;;;;15.22;100.00;101168.78;6063891;19;20003;-68
2023/09/01 06:06:13;;;;;;;14.90;6.68;;;;;;;15.24;100.00;101168.69;6069106;19;20090;-69
2023/09/01 06:08:19;;;;;;;12.35;6.50;;;;;;;15.24;100.00;101171.31;6066224;19;20072;-68
2023/09/01 06:10:25;;;;;;;14.63;7.07;;;;;;;15.26;100.00;101170.31;6063647;19;20011;-68
2023/09/01 06:12:30;;;;;;;11.75;6.38;;;;;;;15.25;100.00;101175.72;6064625;19;20051;-69
2023/09/01 06:14:35;;;;;;;15.50;6.07;;;;;;;15.32;100.00;101174.41;6059922;19;20439;-70
2023/09/01 06:16:40;;;;;;;13.30;6.03;;;;;;;15.25;100.00;101176.56;6072481;19;20020;-67
2023/09/01 06:18:48;;;;;;;13.75;6.55;;;;;;;15.35;100.00;101176.91;6063215;19;20648;-69
2023/09/01 06:20:56;;;;;;;12.68;5.53;;;;;;;15.37;100.00;101173.22;6063772;19;20011;-69
2023/09/01 06:23:05;;;;;;;12.80;7.03;;;;;;;15.32;100.00;101170.00;6050504;19;20013;-68
2023/09/01 06:25:11;;;;;;;12.98;6.45;;;;;;;15.41;100.00;101173.06;6066691;19;20277;-68
2023/09/01 06:27:17;;;;;;;12.95;5.93;;;;;;;15.43;100.00;101176.47;6069187;19;20392;-69
2023/09/01 06:29:42;;;;;;;12.75;6.53;;;;;;;15.38;100.00;101179.38;6072471;19;20212;-70
2023/09/01 06:31:48;;;;;;;12.15;6.03;;;;;;;15.29;100.00;101178.06;6054492;19;20005;-68
2023/09/01 06:33:53;;;;;;;11.60;5.53;;;;;;;15.39;100.00;101186.38;6069229;19;20029;-70
2023/09/01 06:35:59;;;;;;;15.18;6.05;;;;;;;15.42;100.00;101178.25;6065337;19;20474;-68
2023/09/01 06:38:12;;;;;;;11.60;6.00;;;;;;;15.44;100.00;101183.47;6044361;19;20014;-69
2023/09/01 06:40:21;;;;;;;13.38;5.90;;;;;;;15.49;100.00;101186.75;6064318;19;20006;-69
2023/09/01 06:42:29;;;;;;;12.80;6.05;;;;;;;15.50;100.00;101188.44;6069488;19;20480;-69
2023/09/01 06:44:40;;;;;;;12.52;5.43;;;;;;;15.41;100.00;101189.81;6062887;19;20176;-69
2023/09/01 06:46:46;;;;;;;11.38;5.22;;;;;;;15.49;100.00;101194.69;6066484;19;20100;-68
2023/09/01 06:48:48;;;;;;;12.90;6.10;;;;;;;15.48;100.00;101193.84;6063722;19;20281;-68
2023/09/01 06:50:55;;;;;;;;;;;;;;;15.48;100.00;101196.47;6065397;19;20322;-68
2023/09/01 06:53:03;;;;;;;13.70;5.35;;;;;;;15.43;100.00;101195.00;6060576;19;19910;-69
2023/09/01 06:55:09;;;;;;;11.15;5.65;;;;;;;15.47;100.00;101200.06;6069993;19;20025;-69
2023/09/01 06:57:15;;;;;;;17.35;7.82;;;;;;;15.44;100.00;101204.69;6056899;19;20538;-68
2023/09/01 06:59:20;;;;;;;11.23;6.18;;;;;;;15.48;100.00;101193.84;6064286;19;20551;-69
2023/09/01 07:01:29;;;;;;;11.35;6.47;;;;;;;15.49;100.00;101189.38;6059671;19;20673;-68
2023/09/01 07:03:35;;;;;;;13.93;6.60;;;;;;;15.56;100.00;101182.78;6058200;19;20011;-70
2023/09/01 07:05:37;;;;;;;13.88;5.90;;;;;;;15.62;100.00;101189.56;6054562;19;20011;-69
2023/09/01 07:07:49;;;;;;;17.40;9.07;;;;;;;15.67;100.00;101183.06;6055146;19;20028;-68
2023/09/01 07:10:03;;;;;;;18.10;10.57;;;;;;;15.51;100.00;101179.56;6059311;19;20354;-69
2023/09/01 07:12:09;;;;;;;20.08;8.93;;;;;;;15.68;100.00;101187.41;6057458;19;20181;-71
2023/09/01 07:14:15;;;;;;;16.55;8.50;;;;;;;15.68;100.00;101181.25;6065358;19;20015;-69
2023/09/01 07:16:20;;;;;;;16.23;7.38;;;;;;;15.74;100.00;101181.78;6070973;19;20042;-69
2023/09/01 07:18:25;;;;;;;13.50;6.38;;;;;;;15.66;100.00;101176.03;6071494;19;20242;-68
2023/09/01 07:20:31;;;;;;;13.13;7.13;;;;;;;15.77;100.00;101176.34;6068978;19;20331;-70
2023/09/01 07:22:36;;;;;;;10.98;6.20;;;;;;;15.78;100.00;101174.53;6081931;19;19998;-70
2023/09/01 07:24:42;;;;;;;13.77;7.00;;;;;;;15.77;100.00;101173.69;6063687;19;20444;-68
2023/09/01 07:26:53;;;;;;;12.80;5.90;;;;;;;15.79;100.00;101174.44;6067457;19;20598;-69
2023/09/01 07:29:01;;;;;;;10.65;6.07;;;;;;;15.83;100.00;101168.97;6065843;19;20111;-70
2023/09/01 07:31:12;;;;;;;12.68;5.45;;;;;;;15.93;100.00;101167.47;6062851;19;20043;-68
2023/09/01 07:33:18;;;;;;;12.38;5.18;;;;;;;16.00;99.50;101169.69;6069215;19;20176;-68
2023/09/01 07:35:23;;;;;;;9.18;5.47;;;;;;;15.96;100.00;101167.31;6060074;19;20371;-68
2023/09/01 07:37:29;;;;;;;13.45;6.20;;;;;;;15.79;100.00;101174.44;6077006;19;20544;-68
2023/09/01 07:39:35;;;;;;;12.23;5.63;;;;;;;15.93;100.00;101176.31;6064522;19;20044;-69
2023/09/01 07:41:38;;;;;;;13.00;5.25;;;;;;;15.85;100.00;101182.97;6063229;19;20162;-68
2023/09/01 07:43:46;;;;;;;13.15;5.60;;;;;;;15.87;100.00;101183.75;6062639;19;20629;-69
2023/09/01 07:45:51;;;;;;;11.65;6.07;;;;;;;15.87;100.00;101175.78;6071679;19;20471;-70
2023/09/01 07:47:59;;;;;;;12.23;5.28;;;;;;;15.87;100.00;101183.75;6080410;19;20564;-69
2023/09/01 07:50:29;;;;;;;11.43;5.70;;;;;;;16.01;100.00;101181.16;6066782;19;20002;-69
2023/09/01 07:52:35;;;;;;;10.45;5.10;;;;;;;16.01;100.00;101173.22;6057693;19;20083;-68
2023/09/01 07:54:44;;;;;;;11.23;4.97;;;;;;;16.04;100.00;101180.13;6060776;19;20585;-68
2023/09/01 07:56:49;;;;;;;13.60;5.25;;;;;;;16.14;100.00;101183.94;6064810;19;20387;-70
2023/09/01 07:58:59;;;;;;;11.85;5.85;;;;;;;16.13;99.89;101182.25;6061835;19;20271;-69
2023/09/01 08:01:05;;;;;;;11.27;6.20;;;;;;;16.04;99.88;101177.50;6054253;19;20147;-70
2023/09/01 08:03:10;;;;;;;13.23;6.03;;;;;;;16.01;100.00;101179.38;6065515;19;20601;-72
2023/09/01 08:05:16;;;;;;;13.27;5.38;;;;;;;15.92;100.00;101185.19;6059077;19;20010;-70
2023/09/01 08:07:22;;;;;;;12.60;5.93;;;;;;;15.89;100.00;101180.06;6066186;19;20011;-69
2023/09/01 08:09:28;;;;;;;15.05;5.82;;;;;;;15.77;100.00;101181.63;6061528;19;20147;-70
2023/09/01 08:11:34;;;;;;;16.63;5.72;;;;;;;15.91;100.00;101188.78;6058280;19;20006;-70
2023/09/01 08:13:39;;;;;;;13.00;5.30;;;;;;;15.79;100.00;101185.03;6057719;19;20010;-68
2023/09/01 08:15:47;;;;;;;10.25;5.22;;;;;;;15.84;100.00;101191.88;6063265;19;20081;-70
2023/09/01 08:17:52;;;;;;;15.77;6.28;;;;;;;15.85;100.00;101194.44;6054631;19;20003;-69
2023/09/01 08:20:02;;;;;;;12.95;5.88;;;;;;;15.93;100.00;101193.97;6072032;19;20175;-70
2023/09/01 08:22:04;;;;;;;11.75;6.05;;;;;;;15.94;100.00;101190.41;6074147;19;20870;-69
2023/09/01 08:24:10;;;;;;;15.38;5.93;;;;;;;16.06;100.00;101180.88;6062462;19;20064;-68
2023/09/01 08:26:15;;;;;;;11.43;5.68;;;;;;;16.16;100.00;101188.22;6062718;19;20011;-68
2023/09/01 08:28:20;;;;;;;11.10;5.38;;;;;;;16.23;99.89;101186.91;6069129;19;20017;-68
2023/09/01 08:30:26;;;;;;;12.90;4.85;;;;;;;16.18;100.00;101191.63;6066204;19;20188;-68
2023/09/01 08:32:34;;;;;;;12.52;5.78;;;;;;;16.12;99.88;101189.34;6056895;19;20027;-70
2023/09/01 08:34:37;;;;;;;11.02;5.80;;;;;;;16.10;100.00;101193.88;6054422;19;20043;-69
2023/09/01 08:36:43;;;;;;;12.82;6.10;;;;;;;16.18;100.00;101194.28;6055203;19;19999;-68
2023/09/01 08:38:48;;;;;;;12.20;5.30;;;;;;;16.24;100.00;101196.59;6062584;19;20012;-69
2023/09/01 08:41:01;;;;;;;10.55;5.30;;;;;;;16.32;99.39;101193.47;6058522;19;21486;-69
2023/09/01 08:43:07;;;;;;;12.80;6.10;;;;;;;16.15;100.00;101191.81;6061891;19;20037;-68
2023/09/01 08:45:10;;;;;;;12.05;5.95;;;;;;;16.28;99.66;101191.09;6065638;19;20007;-69
2023/09/01 08:47:17;;;;;;;12.30;6.15;;;;;;;16.30;99.80;101194.50;6067047;19;20397;-68
2023/09/01 08:49:30;;;;;;;14.98;5.53;;;;;;;16.35;99.63;101187.13;6068367;19;20740;-69
2023/09/01 08:51:37;;;;;;;10.13;5.68;;;;;;;16.36;99.59;101199.47;6063263;19;20497;-68
2023/09/01 08:53:41;;;;;;;14.18;5.95;;;;;;;16.32;99.59;101200.56;6060913;19;20312;-69
2023/09/01 08:55:48;;;;;;;13.48;6.07;;;;;;;16.40;99.35;101206.28;6053583;19;20220;-68
2023/09/01 08:57:56;;;;;;;14.43;6.45;;;;;;;16.24;99.89;101209.84;6057522;19;20425;-69
2023/09/01 09:00:01;;;;;;;10.75;5.82;;;;;;;16.21;100.00;101210.00;6065180;19;20312;-69
2023/09/01 09:02:07;;;;;;;9.88;5.28;;;;;;;16.14;100.00;101207.78;6053077;19;20478;-68
2023/09/01 09:04:10;;;;;;;14.60;5.80;;;;;;;16.17;100.00;101210.31;6053868;19;20072;-70
2023/09/01 09:06:18;;;;;;;;;;;;;;;16.08;100.00;101222.28;6059171;19;20007;-67
2023/09/01 09:08:27;;;;;;;13.93;5.97;;;;;;;16.28;100.00;101221.13;6061487;19;19917;-70
2023/09/01 09:10:37;;;;;;;13.75;6.00;;;;;;;16.37;100.00;101225.03;6061347;19;20656;-70
2023/09/01 09:12:44;;;;;;;12.07;5.95;;;;;;;16.35;100.00;101218.94;6056599;19;20520;-69
2023/09/01 09:14:50;;;;;;;15.32;7.38;;;;;;;16.30;100.00;101227.19;6063388;19;20481;-69
2023/09/01 09:17:05;;;;;;;11.57;6.55;;;;;;;16.32;100.00;101227.09;6067721;19;20316;-69
2023/09/01 09:19:16;;;;;;;11.88;7.00;;;;;;;16.37;100.00;101225.88;6077340;19;20462;-69
2023/09/01 09:21:32;;;;;;;14.35;7.18;;;;;;;16.40;100.00;101222.19;6077027;19;20015;-69
2023/09/01 09:23:44;;;;;;;14.95;7.90;;;;;;;16.42;100.00;101218.50;6074993;19;20065;-70
2023/09/01 09:25:50;;;;;;;12.15;7.10;;;;;;;16.44;100.00;101223.72;6070877;19;20336;-68
2023/09/01 09:27:59;;;;;;;14.23;7.18;;;;;;;16.54;100.00;101216.94;6089092;19;20002;-68
2023/09/01 09:30:05;;;;;;;15.32;6.93;;;;;;;16.57;100.00;101219.41;6096687;19;20010;-70
2023/09/01 09:32:18;;;;;;;16.50;7.50;;;;;;;16.61;100.00;101226.25;6097869;19;20104;-68
2023/09/01 09:34:27;;;;;;;14.00;7.18;;;;;;;16.77;99.94;101218.25;6096062;19;20014;-69
2023/09/01 09:36:38;;;;;;;15.07;7.60;;;;;;;16.80;99.17;101214.56;6091894;19;20011;-68
2023/09/01 09:38:46;;;;;;;14.82;7.30;;;;;;;16.83;98.74;101215.22;6091559;19;20010;-69
2023/09/01 09:41:01;;;;;;;14.02;7.05;;;;;;;16.94;98.51;101217.22;6094757;19;20042;-69